Time;durP1;ratioP1;P1;durP2;ratioP2;P2;SDS_P1;SDS_P2;PMS_P1;PMS_P2;Temp;Humidity;BMP_temperature;BMP_pressure;BME280_temperature;BME280_humidity;BME280_pressure;Samples;Min_cycle;Max_cycle;Signal;HPM_P1;HPM_P2
2020/12/23 00:00:07;;;;;;;1.10;0.80;;;;;;;10.72;100.00;96299.81;1024205;29;20051;-73
2020/12/23 00:00:38;;;;;;;0.55;0.50;;;;;;;10.72;100.00;96299.81;1020266;29;20040;-72
2020/12/23 00:01:22;;;;;;;1.33;0.60;;;;;;;10.70;100.00;96302.63;1024242;29;20049;-72
2020/12/23 00:02:00;;;;;;;2.90;0.85;;;;;;;10.64;100.00;96281.22;1024333;28;20102;-73
2020/12/23 00:02:30;;;;;;;1.42;0.75;;;;;;;10.67;100.00;96297.63;1019715;29;20119;-72
2020/12/23 00:03:01;;;;;;;1.67;0.40;;;;;;;10.67;100.00;96297.63;1027606;28;20526;-72
2020/12/23 00:03:32;;;;;;;1.23;0.70;;;;;;;10.62;100.00;96285.88;1024260;29;20130;-72
2020/12/23 00:04:03;;;;;;;0.95;0.60;;;;;;;10.67;100.00;96297.63;1032295;28;20028;-73
2020/12/23 00:04:34;;;;;;;1.73;0.90;;;;;;;10.66;100.00;96295.16;1024095;29;20023;-72
2020/12/23 00:05:07;;;;;;;1.13;0.60;;;;;;;10.65;100.00;96302.28;1028236;28;20035;-72
2020/12/23 00:05:37;;;;;;;2.58;0.70;;;;;;;10.74;100.00;96288.00;1024253;29;20034;-72
2020/12/23 00:06:08;;;;;;;0.85;0.65;;;;;;;10.68;100.00;96278.06;1024242;29;20090;-73
2020/12/23 00:06:39;;;;;;;1.40;0.50;;;;;;;10.81;100.00;96297.97;1024070;29;20023;-72
2020/12/23 00:07:14;;;;;;;2.38;0.73;;;;;;;10.81;100.00;96295.31;1020348;29;20110;-73
2020/12/23 00:07:46;;;;;;;1.02;0.60;;;;;;;10.81;100.00;96285.50;1028270;28;20027;-72
2020/12/23 00:08:17;;;;;;;1.08;0.47;;;;;;;10.84;100.00;96293.13;1020278;29;20027;-74
2020/12/23 00:08:48;;;;;;;2.33;0.80;;;;;;;10.85;100.00;96288.66;1028118;28;20031;-72
2020/12/23 00:09:19;;;;;;;1.35;0.63;;;;;;;10.87;100.00;96302.63;1032310;28;20030;-72
2020/12/23 00:09:50;;;;;;;0.80;0.60;;;;;;;10.86;100.00;96290.31;1028244;28;20058;-72
2020/12/23 00:10:21;;;;;;;2.22;0.75;;;;;;;10.78;100.00;96287.66;1028323;28;20069;-74
2020/12/23 00:10:51;;;;;;;1.27;0.70;;;;;;;10.66;100.00;96269.44;1024026;29;20028;-72
2020/12/23 00:11:22;;;;;;;1.52;0.68;;;;;;;10.85;100.00;96293.97;1028486;28;20050;-73
2020/12/23 00:11:53;;;;;;;1.30;0.60;;;;;;;10.77;100.00;96288.69;1028329;28;20027;-73
2020/12/23 00:12:24;;;;;;;1.83;0.70;;;;;;;10.82;100.00;96299.63;1028275;28;20376;-74
2020/12/23 00:12:55;;;;;;;0.85;0.50;;;;;;;10.80;100.00;96291.81;1028076;28;20117;-75
2020/12/23 00:13:25;;;;;;;1.38;0.73;;;;;;;10.79;100.00;96292.00;1028263;28;20033;-73
2020/12/23 00:13:56;;;;;;;0.55;0.50;;;;;;;10.74;100.00;96298.63;1032364;28;20481;-73
2020/12/23 00:14:27;;;;;;;1.60;0.55;;;;;;;10.74;100.00;96300.47;1028248;28;20078;-72
2020/12/23 00:14:58;;;;;;;0.88;0.60;;;;;;;10.69;100.00;96297.47;1024087;29;20027;-73
2020/12/23 00:15:28;;;;;;;3.13;0.82;;;;;;;10.65;100.00;96298.81;1028201;28;20415;-72
2020/12/23 00:15:59;;;;;;;1.00;0.60;;;;;;;10.69;100.00;96289.50;1028316;28;20030;-72
2020/12/23 00:16:30;;;;;;;0.98;0.52;;;;;;;10.71;100.00;96298.97;1024353;29;20080;-74
2020/12/23 00:17:04;;;;;;;1.50;0.60;;;;;;;10.71;100.00;96290.16;1028079;28;20027;-73
2020/12/23 00:17:35;;;;;;;2.17;0.52;;;;;;;10.68;100.00;96299.31;1024317;29;20077;-72
2020/12/23 00:18:05;;;;;;;1.15;0.57;;;;;;;10.69;100.00;96295.66;1020302;29;20079;-72
2020/12/23 00:18:36;;;;;;;1.35;0.68;;;;;;;10.70;100.00;96299.16;1028231;28;20033;-72
2020/12/23 00:19:07;;;;;;;1.02;0.60;;;;;;;10.66;100.00;96290.69;1024138;28;20563;-73
2020/12/23 00:19:38;;;;;;;1.20;0.50;;;;;;;10.66;100.00;96300.47;1020201;29;20024;-73
2020/12/23 00:20:09;;;;;;;1.40;0.70;;;;;;;10.70;100.00;96297.31;1024198;29;20101;-72
2020/12/23 00:20:39;;;;;;;1.33;0.60;;;;;;;10.73;100.00;96294.31;1028228;28;20058;-72
2020/12/23 00:21:10;;;;;;;1.02;0.50;;;;;;;10.73;100.00;96290.84;1028031;28;20030;-73
2020/12/23 00:21:41;;;;;;;1.00;0.63;;;;;;;10.73;100.00;96289.00;1024193;29;20122;-72
2020/12/23 00:22:12;;;;;;;1.30;0.70;;;;;;;10.71;100.00;96291.00;1028114;28;20439;-73
2020/12/23 00:22:43;;;;;;;0.95;0.55;;;;;;;10.71;100.00;96282.19;1028111;28;20078;-73
2020/12/23 00:23:13;;;;;;;1.13;0.70;;;;;;;10.73;100.00;96290.84;1032023;28;20022;-73
2020/12/23 00:23:44;;;;;;;0.98;0.60;;;;;;;10.71;100.00;96291.00;1028324;28;20496;-72
2020/12/23 00:24:15;;;;;;;2.03;0.50;;;;;;;10.70;100.00;96291.19;1028191;28;20118;-72
2020/12/23 00:24:46;;;;;;;1.10;0.40;;;;;;;10.73;100.00;96291.66;1020239;29;20011;-72
2020/12/23 00:25:16;;;;;;;1.27;0.60;;;;;;;10.72;100.00;96284.69;1028032;28;20072;-73
2020/12/23 00:25:47;;;;;;;1.00;0.70;;;;;;;10.76;100.00;96290.47;1028162;28;20021;-72
2020/12/23 00:26:18;;;;;;;0.80;0.60;;;;;;;10.79;100.00;96292.00;1028158;28;20035;-73
2020/12/23 00:26:49;;;;;;;1.13;0.55;;;;;;;10.82;100.00;96294.31;1020285;29;20512;-72
2020/12/23 00:27:20;;;;;;;1.80;0.60;;;;;;;10.81;100.00;96290.81;1024163;29;20067;-73
2020/12/23 00:27:51;;;;;;;1.92;0.85;;;;;;;10.83;100.00;96286.16;1028141;28;20066;-72
2020/12/23 00:28:22;;;;;;;2.28;0.82;;;;;;;10.81;100.00;96276.72;1024230;29;20416;-72
2020/12/23 00:28:52;;;;;;;1.48;0.70;;;;;;;10.68;100.00;96264.78;1024261;29;20056;-72
2020/12/23 00:29:23;;;;;;;1.48;0.70;;;;;;;10.86;100.00;96280.50;1024076;29;20019;-73
2020/12/23 00:29:54;;;;;;;0.55;0.40;;;;;;;10.75;99.90;96265.75;1020203;29;20023;-72
2020/12/23 00:30:25;;;;;;;0.73;0.55;;;;;;;10.87;99.95;96282.19;1028166;28;20109;-73
2020/12/23 00:30:56;;;;;;;0.85;0.50;;;;;;;10.87;100.00;96276.88;1036241;28;20040;-72
2020/12/23 00:31:26;;;;;;;3.88;0.63;;;;;;;10.86;100.00;96274.38;1028140;28;20010;-73
2020/12/23 00:31:57;;;;;;;0.68;0.50;;;;;;;10.86;100.00;96279.69;1028111;28;20019;-72
2020/12/23 00:32:29;;;;;;;0.65;0.50;;;;;;;10.86;100.00;96283.16;1027984;28;20558;-72
2020/12/23 00:32:59;;;;;;;0.93;0.60;;;;;;;10.87;100.00;96287.50;1032369;28;20045;-72
2020/12/23 00:33:30;;;;;;;1.60;0.65;;;;;;;10.89;99.76;96279.34;1024059;29;20420;-74
2020/12/23 00:34:02;;;;;;;0.80;0.60;;;;;;;10.84;99.80;96276.38;1028119;28;20045;-72
2020/12/23 00:34:33;;;;;;;1.33;0.52;;;;;;;10.92;99.55;96287.00;1028225;28;20015;-72
2020/12/23 00:35:04;;;;;;;0.70;0.50;;;;;;;10.82;99.94;96262.44;1024132;29;20022;-72
2020/12/23 00:35:35;;;;;;;0.95;0.75;;;;;;;10.87;99.77;96282.19;1028087;28;20019;-72
2020/12/23 00:36:05;;;;;;;0.90;0.50;;;;;;;10.88;99.74;96283.00;1032117;28;20053;-72
2020/12/23 00:36:36;;;;;;;2.53;0.50;;;;;;;10.84;99.97;96292.31;1028286;28;20399;-72
2020/12/23 00:37:07;;;;;;;0.45;0.32;;;;;;;10.78;100.00;96282.34;1032216;28;20019;-72
2020/12/23 00:37:38;;;;;;;1.10;0.70;;;;;;;10.82;99.49;96295.13;1028187;28;20058;-72
2020/12/23 00:38:08;;;;;;;0.60;0.50;;;;;;;10.84;99.53;96282.50;1028093;28;20094;-73
2020/12/23 00:38:39;;;;;;;1.38;0.47;;;;;;;10.88;99.24;96288.31;1020179;29;20440;-72
2020/12/23 00:39:10;;;;;;;1.23;0.70;;;;;;;10.95;98.77;96289.28;1024408;29;20023;-72
2020/12/23 00:39:41;;;;;;;2.13;0.60;;;;;;;10.90;99.01;96283.66;1027935;28;20025;-72
2020/12/23 00:40:12;;;;;;;1.05;0.50;;;;;;;10.84;99.15;96271.06;1028098;28;20027;-72
2020/12/23 00:40:43;;;;;;;0.63;0.40;;;;;;;10.94;98.82;96285.81;1028339;28;20014;-72
2020/12/23 00:41:13;;;;;;;0.50;0.40;;;;;;;10.95;98.80;96289.28;1028123;28;20529;-73
2020/12/23 00:41:44;;;;;;;1.33;0.55;;;;;;;10.99;98.62;96287.13;1024097;29;20493;-72
2020/12/23 00:42:20;;;;;;;2.08;0.47;;;;;;;11.01;98.10;96296.59;1024107;29;20102;-74
2020/12/23 00:42:50;;;;;;;1.10;0.47;;;;;;;11.04;97.81;96288.28;1020270;29;20098;-72
2020/12/23 00:43:21;;;;;;;0.45;0.40;;;;;;;11.00;97.81;96264.88;1020181;29;20496;-73
2020/12/23 00:43:52;;;;;;;1.00;0.50;;;;;;;11.09;97.60;96274.47;1020207;29;20015;-73
2020/12/23 00:44:24;;;;;;;1.23;0.45;;;;;;;11.09;97.34;96275.31;1023992;29;20142;-72
2020/12/23 00:44:57;;;;;;;1.13;0.57;;;;;;;11.12;97.25;96271.47;1020217;29;20098;-72
2020/12/23 00:45:28;;;;;;;2.95;0.60;;;;;;;11.02;97.57;96261.03;1024150;29;20075;-72
2020/12/23 00:45:59;;;;;;;0.73;0.50;;;;;;;11.08;97.62;96278.16;1024077;28;20510;-73
2020/12/23 00:46:30;;;;;;;0.52;0.50;;;;;;;10.97;97.76;96276.66;1027997;28;20029;-72
2020/12/23 00:47:01;;;;;;;0.60;0.45;;;;;;;11.05;97.11;96268.66;1024159;29;20098;-72
2020/12/23 00:47:32;;;;;;;0.60;0.50;;;;;;;11.11;97.36;96283.09;1024021;29;20438;-72
2020/12/23 00:48:03;;;;;;;1.08;0.50;;;;;;;11.13;96.76;96267.84;1023991;29;20051;-72
2020/12/23 00:48:34;;;;;;;0.47;0.30;;;;;;;11.18;96.97;96275.28;1032133;28;20202;-72
2020/12/23 00:49:05;;;;;;;0.70;0.50;;;;;;;11.20;96.43;96270.59;1028109;28;20466;-72
2020/12/23 00:49:36;;;;;;;1.33;0.50;;;;;;;11.03;96.56;96243.28;1036106;28;20025;-72
2020/12/23 00:50:07;;;;;;;0.65;0.40;;;;;;;11.21;96.55;96269.63;1032048;28;20019;-73
2020/12/23 00:50:38;;;;;;;0.70;0.40;;;;;;;11.19;96.77;96274.28;1027931;28;20090;-73
2020/12/23 00:51:11;;;;;;;1.40;0.85;;;;;;;11.24;96.19;96271.94;1028166;28;20436;-72
2020/12/23 00:51:42;;;;;;;0.68;0.47;;;;;;;11.25;96.22;96276.25;1032124;28;20018;-73
2020/12/23 00:52:13;;;;;;;1.08;0.60;;;;;;;11.29;95.66;96274.91;1035963;28;20112;-73
2020/12/23 00:52:44;;;;;;;0.90;0.50;;;;;;;11.28;95.75;96278.56;1019971;29;20048;-73
2020/12/23 00:53:14;;;;;;;0.68;0.50;;;;;;;11.28;95.89;96274.06;1032095;28;20493;-71
2020/12/23 00:53:45;;;;;;;1.50;0.40;;;;;;;11.22;96.13;96268.63;1028066;28;20130;-73
2020/12/23 00:54:16;;;;;;;0.63;0.40;;;;;;;11.28;95.95;96281.22;1019981;29;20032;-73
2020/12/23 00:54:47;;;;;;;1.25;0.57;;;;;;;11.27;95.87;96279.59;1020079;29;20023;-73
2020/12/23 00:55:18;;;;;;;0.63;0.43;;;;;;;11.26;95.93;96269.94;1024078;29;20095;-72
2020/12/23 00:55:51;;;;;;;0.80;0.50;;;;;;;11.23;96.20;96283.56;1024187;29;20026;-73
2020/12/23 00:56:22;;;;;;;1.08;0.52;;;;;;;11.18;96.38;96281.44;1032002;28;20034;-73
2020/12/23 00:56:53;;;;;;;1.35;0.60;;;;;;;11.11;96.25;96262.69;1028015;28;20015;-73
2020/12/23 00:57:24;;;;;;;0.80;0.50;;;;;;;11.25;95.84;96273.56;1028153;28;20018;-72
2020/12/23 00:57:55;;;;;;;0.50;0.40;;;;;;;11.25;95.86;96276.25;1020214;29;20560;-72
2020/12/23 00:58:26;;;;;;;0.52;0.35;;;;;;;11.28;95.69;96281.22;1024040;29;20023;-73
2020/12/23 00:58:58;;;;;;;1.65;0.40;;;;;;;11.22;95.63;96272.09;1028033;28;20054;-72
2020/12/23 00:59:29;;;;;;;0.60;0.40;;;;;;;11.24;95.32;96278.06;1024054;29;20019;-72
2020/12/23 01:00:01;;;;;;;0.85;0.40;;;;;;;11.31;95.45;96278.22;1023994;29;20031;-72
2020/12/23 01:00:32;;;;;;;0.70;0.50;;;;;;;11.33;94.73;96277.03;1023978;29;20023;-73
2020/12/23 01:01:03;;;;;;;2.42;0.50;;;;;;;11.28;94.82;96265.25;1023883;29;20037;-73
2020/12/23 01:01:34;;;;;;;0.35;0.35;;;;;;;11.36;94.70;96281.19;1028154;28;20109;-72
2020/12/23 01:02:05;;;;;;;0.57;0.40;;;;;;;11.37;94.56;96266.06;1028025;28;20022;-73
2020/12/23 01:02:35;;;;;;;0.63;0.60;;;;;;;11.38;94.60;96273.88;1027335;28;20029;-73
2020/12/23 01:03:06;;;;;;;0.40;0.40;;;;;;;11.39;94.26;96272.03;1027899;28;20101;-73
2020/12/23 01:03:37;;;;;;;0.43;0.30;;;;;;;11.31;94.34;96273.72;1024073;29;20023;-72
2020/12/23 01:04:08;;;;;;;0.70;0.50;;;;;;;11.33;94.76;96285.00;1023842;28;20655;-74
2020/12/23 01:04:39;;;;;;;1.05;0.50;;;;;;;11.34;94.92;96275.22;1020152;29;20023;-72
2020/12/23 01:05:10;;;;;;;1.17;0.70;;;;;;;11.33;94.96;96281.53;1023903;29;20515;-74
2020/12/23 01:05:41;;;;;;;0.57;0.50;;;;;;;11.33;94.79;96276.22;1020248;29;20098;-72
2020/12/23 01:06:13;;;;;;;0.52;0.40;;;;;;;11.32;94.85;96280.72;1024303;28;20031;-73
2020/12/23 01:06:44;;;;;;;0.40;0.30;;;;;;;11.32;94.71;96282.56;1024158;29;20352;-73
2020/12/23 01:07:15;;;;;;;0.75;0.40;;;;;;;11.30;95.01;96287.19;1020835;28;20027;-73
2020/12/23 01:07:47;;;;;;;1.30;0.52;;;;;;;11.31;94.67;96280.88;1020151;29;20033;-72
2020/12/23 01:08:18;;;;;;;2.10;0.50;;;;;;;11.31;94.72;96286.19;1016260;29;20020;-72
2020/12/23 01:08:49;;;;;;;0.45;0.30;;;;;;;11.33;94.35;96284.19;1016701;29;20078;-72
2020/12/23 01:09:20;;;;;;;0.90;0.57;;;;;;;11.33;94.75;96285.00;1019913;29;20461;-72
2020/12/23 01:09:51;;;;;;;1.23;0.50;;;;;;;11.32;94.46;96285.22;1024072;29;20011;-72
2020/12/23 01:10:22;;;;;;;0.80;0.50;;;;;;;11.31;94.81;96288.84;1024019;29;20464;-73
2020/12/23 01:10:53;;;;;;;0.65;0.47;;;;;;;11.31;94.86;96286.19;1024030;29;20026;-72
2020/12/23 01:11:25;;;;;;;0.77;0.50;;;;;;;11.27;94.85;96282.25;1027940;28;20046;-72
2020/12/23 01:11:56;;;;;;;1.25;0.50;;;;;;;11.24;95.12;96282.56;1027992;28;20305;-74
2020/12/23 01:12:27;;;;;;;1.95;0.47;;;;;;;11.18;95.40;96277.94;1027969;28;20097;-72
2020/12/23 01:12:58;;;;;;;3.35;0.60;;;;;;;11.15;95.79;96287.09;1024034;28;20019;-73
2020/12/23 01:13:28;;;;;;;1.25;0.50;;;;;;;11.11;95.32;96268.00;1023881;29;20046;-72
2020/12/23 01:13:59;;;;;;;1.25;0.40;;;;;;;11.14;95.39;96288.91;1023985;29;20523;-72
2020/12/23 01:14:30;;;;;;;0.63;0.40;;;;;;;11.18;95.17;96288.56;1020078;28;20060;-72
2020/12/23 01:15:01;;;;;;;0.40;0.30;;;;;;;11.03;95.32;96275.16;1031955;28;20045;-72
2020/12/23 01:15:32;;;;;;;0.88;0.38;;;;;;;11.13;95.26;96297.88;1023857;28;20038;-72
2020/12/23 01:16:03;;;;;;;1.10;0.50;;;;;;;11.11;95.22;96293.72;1024038;29;20388;-72
2020/12/23 01:16:34;;;;;;;0.52;0.40;;;;;;;11.05;95.97;96289.94;1020110;29;20027;-73
2020/12/23 01:17:04;;;;;;;1.00;0.55;;;;;;;11.00;95.76;96280.81;1020010;29;20046;-74
2020/12/23 01:17:36;;;;;;;0.57;0.50;;;;;;;11.05;95.85;96286.44;1019953;29;20452;-72
2020/12/23 01:18:07;;;;;;;0.75;0.40;;;;;;;11.05;95.37;96286.44;1019997;29;20019;-72
2020/12/23 01:18:37;;;;;;;2.15;0.40;;;;;;;11.03;95.72;96291.94;1020061;29;20129;-72
2020/12/23 01:19:08;;;;;;;0.68;0.50;;;;;;;11.04;95.42;96296.25;1020112;29;20114;-72
2020/12/23 01:19:39;;;;;;;0.50;0.40;;;;;;;10.98;95.95;96296.09;1019877;29;20109;-73
2020/12/23 01:20:09;;;;;;;0.40;0.30;;;;;;;10.98;96.01;96299.59;1019981;29;20028;-73
2020/12/23 01:20:40;;;;;;;0.60;0.30;;;;;;;10.93;95.75;96296.59;1028081;28;20018;-72
2020/12/23 01:21:11;;;;;;;1.40;0.50;;;;;;;10.95;95.84;96294.59;1024030;28;20499;-72
2020/12/23 01:21:44;;;;;;;0.40;0.30;;;;;;;10.94;96.31;96299.09;1019865;29;20027;-73
2020/12/23 01:22:14;;;;;;;0.93;0.40;;;;;;;10.95;95.95;96302.56;1027994;28;20069;-72
2020/12/23 01:22:45;;;;;;;0.57;0.40;;;;;;;10.94;96.18;96300.94;1032024;28;20487;-73
2020/12/23 01:23:16;;;;;;;0.45;0.40;;;;;;;10.95;96.17;96302.56;1024007;28;20093;-72
2020/12/23 01:23:47;;;;;;;2.17;0.47;;;;;;;10.93;95.99;96300.09;1031702;28;20061;-73
2020/12/23 01:24:17;;;;;;;0.70;0.47;;;;;;;10.84;96.23;96293.13;1028046;28;20107;-72
2020/12/23 01:24:48;;;;;;;1.27;0.50;;;;;;;10.91;96.30;96306.59;1016084;29;20039;-73
2020/12/23 01:25:19;;;;;;;0.30;0.30;;;;;;;10.91;95.95;96298.63;1020031;29;20039;-72
2020/12/23 01:25:51;;;;;;;0.30;0.30;;;;;;;10.85;96.12;96296.63;1027733;28;20018;-73
2020/12/23 01:26:22;;;;;;;0.30;0.30;;;;;;;10.90;96.42;96305.75;1028118;28;20034;-72
2020/12/23 01:26:53;;;;;;;0.45;0.30;;;;;;;10.91;96.30;96303.94;1023997;29;20034;-72
2020/12/23 01:27:24;;;;;;;1.08;0.50;;;;;;;10.91;95.97;96303.94;1019998;29;20118;-73
2020/12/23 01:27:55;;;;;;;0.82;0.50;;;;;;;10.89;96.14;96297.97;1019880;29;20059;-72
2020/12/23 01:28:25;;;;;;;0.38;0.30;;;;;;;10.84;96.39;96293.13;1020100;28;20459;-73
2020/12/23 01:28:56;;;;;;;0.40;0.30;;;;;;;10.88;95.90;96288.31;1023979;28;20028;-72
2020/12/23 01:29:27;;;;;;;0.45;0.30;;;;;;;10.92;96.00;96300.28;1020101;29;20123;-73
2020/12/23 01:29:58;;;;;;;0.43;0.30;;;;;;;10.93;95.92;96302.75;1019751;29;20079;-72
2020/12/23 01:30:29;;;;;;;0.55;0.50;;;;;;;10.93;96.16;96308.06;1019972;29;20036;-72
2020/12/23 01:31:00;;;;;;;0.52;0.40;;;;;;;10.90;95.63;96295.13;1024088;29;20027;-72
2020/12/23 01:31:31;;;;;;;0.60;0.50;;;;;;;10.90;95.71;96297.78;1020011;29;20072;-72
2020/12/23 01:32:01;;;;;;;2.08;0.40;;;;;;;10.95;95.79;96299.91;1023777;28;20031;-73
2020/12/23 01:32:32;;;;;;;1.75;0.47;;;;;;;10.97;95.47;96297.91;1023910;29;20468;-72
2020/12/23 01:33:03;;;;;;;0.50;0.50;;;;;;;10.96;95.66;96296.28;1024094;29;20033;-72
2020/12/23 01:33:34;;;;;;;0.63;0.40;;;;;;;10.97;95.65;96302.41;1020074;29;20112;-72
2020/12/23 01:34:05;;;;;;;0.80;0.45;;;;;;;10.95;95.62;96299.91;1023814;29;20035;-72
2020/12/23 01:34:36;;;;;;;1.92;0.60;;;;;;;10.99;95.27;96300.41;1027988;28;20507;-72
2020/12/23 01:35:07;;;;;;;0.60;0.30;;;;;;;10.98;95.74;96304.09;1016038;29;20555;-72
2020/12/23 01:35:37;;;;;;;0.43;0.30;;;;;;;10.97;95.45;96294.44;1024010;29;20042;-72
2020/12/23 01:36:09;;;;;;;1.75;0.50;;;;;;;10.96;95.53;96300.78;1023955;29;20473;-73
2020/12/23 01:36:40;;;;;;;0.60;0.40;;;;;;;10.90;95.40;96286.31;1023914;29;20102;-72
2020/12/23 01:37:11;;;;;;;1.38;0.60;;;;;;;10.94;95.59;96303.59;1027951;28;20022;-72
2020/12/23 01:37:41;;;;;;;0.35;0.32;;;;;;;10.89;95.21;96282.00;1027954;28;20368;-72
2020/12/23 01:38:12;;;;;;;0.68;0.47;;;;;;;11.06;94.44;96296.91;1023765;28;20469;-72
2020/12/23 01:38:43;;;;;;;0.38;0.38;;;;;;;11.08;94.55;96305.53;1019925;29;20034;-72
2020/12/23 01:39:14;;;;;;;0.30;0.30;;;;;;;11.02;94.54;96284.13;1027923;28;20116;-72
2020/12/23 01:39:44;;;;;;;0.65;0.50;;;;;;;11.06;94.73;96302.22;1019908;29;20314;-73
2020/12/23 01:40:15;;;;;;;0.52;0.38;;;;;;;11.03;94.96;96302.56;1023861;29;20022;-73
2020/12/23 01:40:46;;;;;;;1.38;0.40;;;;;;;11.03;95.00;96301.75;1027794;28;20027;-73
2020/12/23 01:41:17;;;;;;;1.38;0.57;;;;;;;11.04;94.73;96298.91;1023899;29;20011;-73
2020/12/23 01:41:47;;;;;;;1.65;0.50;;;;;;;11.04;94.52;96301.56;1031921;28;20018;-72
2020/12/23 01:42:18;;;;;;;0.93;0.60;;;;;;;10.93;94.60;96291.28;1031885;28;20029;-73
2020/12/23 01:42:49;;;;;;;0.60;0.50;;;;;;;11.02;94.58;96302.72;1015830;29;20019;-73
2020/12/23 01:43:19;;;;;;;2.47;0.40;;;;;;;10.99;94.73;96301.25;1020015;29;20016;-72
2020/12/23 01:43:53;;;;;;;0.50;0.32;;;;;;;11.03;94.39;96299.91;1023879;28;20019;-73
2020/12/23 01:44:24;;;;;;;0.32;0.30;;;;;;;11.07;94.22;96306.53;1015977;29;20183;-72
2020/12/23 01:44:55;;;;;;;0.50;0.30;;;;;;;11.04;94.24;96298.91;1015980;29;20147;-74
2020/12/23 01:45:26;;;;;;;1.25;0.40;;;;;;;11.07;94.13;96303.06;1023984;29;20110;-72
2020/12/23 01:45:58;;;;;;;0.52;0.40;;;;;;;11.11;94.03;96296.38;1023952;29;20015;-73
2020/12/23 01:46:31;;;;;;;0.63;0.40;;;;;;;11.09;94.07;96301.91;1023798;29;20098;-73
2020/12/23 01:47:04;;;;;;;0.52;0.45;;;;;;;11.06;94.09;96304.03;1019877;29;20015;-72
2020/12/23 01:47:35;;;;;;;0.82;0.40;;;;;;;11.04;94.09;96304.25;1027916;28;20015;-72
2020/12/23 01:48:13;;;;;;;0.85;0.50;;;;;;;11.03;94.37;96315.84;1031905;28;20053;-72
2020/12/23 01:48:43;;;;;;;0.60;0.40;;;;;;;11.01;94.15;96304.56;1027675;28;20022;-73
2020/12/23 01:49:14;;;;;;;0.68;0.35;;;;;;;10.79;94.83;96286.69;1023815;28;20023;-72
2020/12/23 01:49:45;;;;;;;0.75;0.52;;;;;;;10.95;94.55;96310.56;1023999;29;20023;-72
2020/12/23 01:50:15;;;;;;;0.47;0.40;;;;;;;10.91;94.86;96303.94;1019939;29;20123;-72
2020/12/23 01:50:46;;;;;;;0.38;0.30;;;;;;;10.94;94.55;96306.25;1023762;29;20035;-73
2020/12/23 01:51:17;;;;;;;0.55;0.50;;;;;;;10.90;94.77;96300.44;1019977;29;20018;-72
2020/12/23 01:51:49;;;;;;;0.70;0.40;;;;;;;10.86;94.99;96300.94;1028044;28;20026;-72
2020/12/23 01:52:20;;;;;;;0.50;0.40;;;;;;;10.86;94.83;96295.63;1020037;29;20118;-72
2020/12/23 01:52:51;;;;;;;0.80;0.40;;;;;;;10.82;94.99;96291.66;1024116;29;20019;-72
2020/12/23 01:53:22;;;;;;;0.65;0.50;;;;;;;10.85;94.98;96300.13;1036857;28;20022;-73
2020/12/23 01:53:53;;;;;;;0.65;0.50;;;;;;;10.85;95.12;96300.13;1028801;28;20022;-71
2020/12/23 01:54:24;;;;;;;1.65;0.40;;;;;;;10.86;94.99;96295.63;1028823;28;20022;-71
2020/12/23 01:54:54;;;;;;;0.73;0.40;;;;;;;10.86;94.95;96293.78;1032710;28;20026;-72
2020/12/23 01:55:25;;;;;;;0.57;0.50;;;;;;;10.84;95.16;96298.44;1024953;28;20027;-71
2020/12/23 01:55:57;;;;;;;0.35;0.35;;;;;;;10.79;95.21;96297.31;1024861;29;20110;-73
2020/12/23 01:56:27;;;;;;;0.50;0.40;;;;;;;10.79;95.15;96294.66;1021104;29;20106;-71
2020/12/23 01:56:58;;;;;;;0.50;0.35;;;;;;;10.73;94.97;96282.88;1020748;29;20012;-71
2020/12/23 01:57:29;;;;;;;0.45;0.40;;;;;;;10.72;95.27;96307.78;1021189;29;20012;-71
2020/12/23 01:57:59;;;;;;;0.90;0.50;;;;;;;10.67;95.36;96291.50;1021126;29;20016;-72
2020/12/23 01:58:30;;;;;;;0.90;0.40;;;;;;;10.73;95.30;96296.16;1021754;29;20014;-71
2020/12/23 01:59:01;;;;;;;0.22;0.22;;;;;;;10.72;95.15;96289.19;1022376;29;20496;-73
2020/12/23 01:59:31;;;;;;;0.60;0.30;;;;;;;10.69;95.35;96293.00;1025583;29;20144;-73
2020/12/23 02:00:09;;;;;;;0.70;0.32;;;;;;;10.68;95.62;96285.22;1024254;29;20085;-74
2020/12/23 02:00:40;;;;;;;1.50;0.50;;;;;;;10.68;95.58;96288.69;1023937;29;20045;-73
2020/12/23 02:01:11;;;;;;;1.88;0.38;;;;;;;10.67;95.30;96289.66;1019712;29;20034;-72
2020/12/23 02:01:45;;;;;;;0.70;0.40;;;;;;;10.62;95.36;96284.03;1027844;28;20154;-73
2020/12/23 02:02:21;;;;;;;0.75;0.47;;;;;;;10.65;95.31;96289.00;1023736;29;20341;-73
2020/12/23 02:02:55;;;;;;;0.70;0.40;;;;;;;10.63;95.76;96283.03;1021865;29;20030;-72
2020/12/23 02:03:26;;;;;;;0.50;0.40;;;;;;;10.63;95.46;96284.88;1027625;28;20027;-73
2020/12/23 02:03:57;;;;;;;0.30;0.30;;;;;;;10.67;95.64;96286.19;1031843;28;20387;-72
2020/12/23 02:04:32;;;;;;;0.95;0.55;;;;;;;10.66;95.25;96279.22;1019902;29;20023;-73
2020/12/23 02:05:04;;;;;;;0.70;0.50;;;;;;;10.63;95.71;96276.91;1023842;29;20011;-73
2020/12/23 02:05:36;;;;;;;0.80;0.43;;;;;;;10.62;95.62;96276.06;1023777;29;20102;-72
2020/12/23 02:06:07;;;;;;;0.85;0.55;;;;;;;10.63;95.38;96279.56;1020968;29;20027;-72
2020/12/23 02:06:38;;;;;;;2.78;0.40;;;;;;;10.67;95.21;96280.88;1023964;29;20491;-72
2020/12/23 02:07:08;;;;;;;0.70;0.40;;;;;;;10.68;95.16;96278.06;1023735;29;20468;-72
2020/12/23 02:07:42;;;;;;;0.75;0.52;;;;;;;10.67;94.83;96276.38;1023719;28;20341;-72
2020/12/23 02:08:13;;;;;;;1.20;0.50;;;;;;;10.65;95.03;96264.28;1027827;28;20011;-72
2020/12/23 02:08:44;;;;;;;0.50;0.30;;;;;;;10.70;95.10;96280.56;1031715;28;20077;-73
2020/12/23 02:09:15;;;;;;;0.57;0.40;;;;;;;10.62;95.01;96262.78;1031802;28;20105;-72
2020/12/23 02:09:48;;;;;;;0.63;0.40;;;;;;;10.60;94.76;96263.97;1023759;29;20109;-72
2020/12/23 02:10:19;;;;;;;0.90;0.35;;;;;;;10.70;94.71;96283.22;1027744;28;20327;-72
2020/12/23 02:10:50;;;;;;;0.40;0.30;;;;;;;10.66;94.59;96263.28;1035918;28;20018;-72
2020/12/23 02:11:21;;;;;;;1.27;0.45;;;;;;;10.72;94.34;96276.72;1035749;28;20060;-73
2020/12/23 02:11:51;;;;;;;0.47;0.40;;;;;;;10.73;94.09;96275.72;1031747;28;20073;-73
2020/12/23 02:12:22;;;;;;;0.75;0.40;;;;;;;10.67;94.59;96260.44;1031672;28;20144;-72
2020/12/23 02:12:53;;;;;;;1.65;0.50;;;;;;;10.73;94.77;96270.41;1027805;28;20102;-72
2020/12/23 02:13:35;;;;;;;1.23;0.20;;;;;;;10.75;94.41;96259.63;1031823;28;20014;-72
2020/12/23 02:14:06;;;;;;;0.50;0.35;;;;;;;10.78;94.47;96269.06;1035830;28;20113;-72
2020/12/23 02:14:38;;;;;;;1.05;0.50;;;;;;;10.81;94.36;96266.09;1035835;28;20095;-72
2020/12/23 02:15:11;;;;;;;0.80;0.40;;;;;;;10.80;94.07;96264.41;1027835;28;20105;-72
2020/12/23 02:15:43;;;;;;;2.08;0.50;;;;;;;10.79;94.33;96262.78;1027141;28;20014;-73
2020/12/23 02:16:14;;;;;;;0.80;0.40;;;;;;;10.75;94.02;96263.09;1027689;28;20093;-72
2020/12/23 02:16:44;;;;;;;0.60;0.40;;;;;;;10.82;93.79;96273.06;1031832;28;20023;-72
2020/12/23 02:17:16;;;;;;;1.88;0.40;;;;;;;10.77;94.00;96264.78;1027731;28;20018;-72
2020/12/23 02:17:48;;;;;;;0.68;0.40;;;;;;;10.77;94.20;96273.56;1031625;28;20502;-74
2020/12/23 02:18:18;;;;;;;1.05;0.50;;;;;;;10.69;94.07;96252.31;1019762;29;20500;-72
2020/12/23 02:18:49;;;;;;;0.52;0.32;;;;;;;10.86;94.08;96269.06;1027842;28;20015;-72
2020/12/23 02:19:20;;;;;;;0.50;0.38;;;;;;;10.86;93.99;96274.38;1027774;28;20054;-72
2020/12/23 02:19:50;;;;;;;0.60;0.40;;;;;;;10.85;94.08;96270.03;1027524;28;20033;-74
2020/12/23 02:20:21;;;;;;;0.40;0.30;;;;;;;10.85;93.92;96275.34;1031805;28;20068;-73
2020/12/23 02:20:52;;;;;;;0.60;0.47;;;;;;;10.76;94.27;96269.22;1027775;28;20218;-73
2020/12/23 02:21:24;;;;;;;0.60;0.40;;;;;;;10.85;94.00;96278.00;1023872;29;20126;-72
2020/12/23 02:21:54;;;;;;;0.52;0.40;;;;;;;10.86;93.74;96277.03;1023716;29;20023;-72
2020/12/23 02:22:32;;;;;;;0.68;0.40;;;;;;;10.88;93.93;96269.72;1027708;28;20505;-73
2020/12/23 02:23:03;;;;;;;0.68;0.40;;;;;;;10.87;94.02;96276.03;1032017;28;20026;-72
2020/12/23 02:23:34;;;;;;;0.50;0.40;;;;;;;10.80;93.93;96259.09;1031897;28;20407;-73
2020/12/23 02:24:05;;;;;;;0.98;0.47;;;;;;;10.62;93.74;96230.09;1023747;29;20518;-72
2020/12/23 02:24:35;;;;;;;0.30;0.30;;;;;;;10.90;93.80;96270.38;1023790;29;20015;-72
2020/12/23 02:25:07;;;;;;;0.85;0.47;;;;;;;10.91;93.71;96266.72;1031815;28;20030;-72
2020/12/23 02:25:37;;;;;;;0.60;0.55;;;;;;;10.91;93.93;96266.72;1023853;29;20015;-73
2020/12/23 02:26:08;;;;;;;0.68;0.55;;;;;;;10.83;93.89;96253.44;1023588;29;20490;-74
2020/12/23 02:26:39;;;;;;;1.60;0.40;;;;;;;10.90;93.63;96257.94;1031781;28;20014;-72